sensor_id;sensor_type;location;lat;lon;timestamp;P1;durP1;ratioP1;P2;durP2;ratioP2
17886;SDS011;9069;52.044;7.472;2024-01-10T00:02:04;8.70;;;3.23;;
17886;SDS011;9069;52.044;7.472;2024-01-10T00:04:31;9.90;;;3.63;;
17886;SDS011;9069;52.044;7.472;2024-01-10T00:06:58;8.67;;;3.13;;
17886;SDS011;9069;52.044;7.472;2024-01-10T00:09:26;6.90;;;3.07;;
17886;SDS011;9069;52.044;7.472;2024-01-10T00:11:53;7.13;;;3.27;;
17886;SDS011;9069;52.044;7.472;2024-01-10T00:14:19;9.73;;;3.50;;
17886;SDS011;9069;52.044;7.472;2024-01-10T00:16:46;5.70;;;2.80;;
17886;SDS011;9069;52.044;7.472;2024-01-10T00:19:13;5.63;;;3.10;;
17886;SDS011;9069;52.044;7.472;2024-01-10T00:21:40;8.33;;;3.20;;
17886;SDS011;9069;52.044;7.472;2024-01-10T00:24:07;7.57;;;2.77;;
17886;SDS011;9069;52.044;7.472;2024-01-10T00:26:33;8.50;;;3.13;;
17886;SDS011;9069;52.044;7.472;2024-01-10T00:29:00;6.43;;;2.63;;
17886;SDS011;9069;52.044;7.472;2024-01-10T00:31:30;9.07;;;3.30;;
17886;SDS011;9069;52.044;7.472;2024-01-10T00:33:57;7.77;;;3.60;;
17886;SDS011;9069;52.044;7.472;2024-01-10T00:36:25;6.37;;;2.97;;
17886;SDS011;9069;52.044;7.472;2024-01-10T00:38:52;8.93;;;3.37;;
17886;SDS011;9069;52.044;7.472;2024-01-10T00:41:19;6.73;;;3.33;;
17886;SDS011;9069;52.044;7.472;2024-01-10T00:43:46;8.27;;;3.53;;
17886;SDS011;9069;52.044;7.472;2024-01-10T00:46:13;6.77;;;2.77;;
17886;SDS011;9069;52.044;7.472;2024-01-10T00:48:40;8.87;;;3.07;;
17886;SDS011;9069;52.044;7.472;2024-01-10T00:51:06;5.93;;;3.13;;
17886;SDS011;9069;52.044;7.472;2024-01-10T00:53:35;8.60;;;3.20;;
17886;SDS011;9069;52.044;7.472;2024-01-10T00:56:02;7.27;;;2.83;;
17886;SDS011;9069;52.044;7.472;2024-01-10T00:58:29;7.90;;;3.37;;
17886;SDS011;9069;52.044;7.472;2024-01-10T01:00:56;7.50;;;3.23;;
17886;SDS011;9069;52.044;7.472;2024-01-10T01:03:23;5.23;;;2.87;;
17886;SDS011;9069;52.044;7.472;2024-01-10T01:05:49;9.47;;;3.30;;
17886;SDS011;9069;52.044;7.472;2024-01-10T01:08:16;9.57;;;3.27;;
17886;SDS011;9069;52.044;7.472;2024-01-10T01:10:43;9.37;;;3.23;;
17886;SDS011;9069;52.044;7.472;2024-01-10T01:13:10;7.37;;;3.17;;
17886;SDS011;9069;52.044;7.472;2024-01-10T01:15:37;5.93;;;3.00;;
17886;SDS011;9069;52.044;7.472;2024-01-10T01:18:04;6.90;;;3.53;;
17886;SDS011;9069;52.044;7.472;2024-01-10T01:20:32;7.33;;;2.97;;
17886;SDS011;9069;52.044;7.472;2024-01-10T01:22:59;10.67;;;3.27;;
17886;SDS011;9069;52.044;7.472;2024-01-10T01:25:26;8.87;;;3.37;;
17886;SDS011;9069;52.044;7.472;2024-01-10T01:27:53;8.87;;;3.50;;
17886;SDS011;9069;52.044;7.472;2024-01-10T01:30:19;6.10;;;2.90;;
17886;SDS011;9069;52.044;7.472;2024-01-10T01:32:48;7.37;;;3.23;;
17886;SDS011;9069;52.044;7.472;2024-01-10T01:35:15;5.43;;;2.73;;
17886;SDS011;9069;52.044;7.472;2024-01-10T01:37:48;7.43;;;3.30;;
17886;SDS011;9069;52.044;7.472;2024-01-10T01:40:15;8.60;;;3.13;;
17886;SDS011;9069;52.044;7.472;2024-01-10T01:42:43;8.10;;;3.60;;
17886;SDS011;9069;52.044;7.472;2024-01-10T01:45:12;7.13;;;3.43;;
17886;SDS011;9069;52.044;7.472;2024-01-10T01:47:39;6.83;;;3.23;;
17886;SDS011;9069;52.044;7.472;2024-01-10T01:50:07;8.33;;;3.60;;
17886;SDS011;9069;52.044;7.472;2024-01-10T01:52:35;8.63;;;4.17;;
17886;SDS011;9069;52.044;7.472;2024-01-10T01:55:03;5.90;;;3.10;;
17886;SDS011;9069;52.044;7.472;2024-01-10T01:57:31;7.30;;;3.20;;
17886;SDS011;9069;52.044;7.472;2024-01-10T01:59:59;6.73;;;2.80;;
17886;SDS011;9069;52.044;7.472;2024-01-10T02:02:26;6.20;;;3.50;;
17886;SDS011;9069;52.044;7.472;2024-01-10T02:04:55;8.30;;;3.20;;
17886;SDS011;9069;52.044;7.472;2024-01-10T02:07:22;5.23;;;2.90;;
17886;SDS011;9069;52.044;7.472;2024-01-10T02:09:49;7.10;;;3.00;;
17886;SDS011;9069;52.044;7.472;2024-01-10T02:12:15;7.27;;;3.43;;
17886;SDS011;9069;52.044;7.472;2024-01-10T02:14:42;6.43;;;2.80;;
17886;SDS011;9069;52.044;7.472;2024-01-10T02:17:09;7.53;;;3.57;;
17886;SDS011;9069;52.044;7.472;2024-01-10T02:19:36;7.57;;;3.00;;
17886;SDS011;9069;52.044;7.472;2024-01-10T02:22:03;7.57;;;3.43;;
17886;SDS011;9069;52.044;7.472;2024-01-10T02:24:30;8.40;;;3.40;;
17886;SDS011;9069;52.044;7.472;2024-01-10T02:26:57;7.47;;;3.63;;
17886;SDS011;9069;52.044;7.472;2024-01-10T02:29:24;8.00;;;3.60;;
17886;SDS011;9069;52.044;7.472;2024-01-10T02:31:51;5.50;;;3.10;;
17886;SDS011;9069;52.044;7.472;2024-01-10T02:34:18;6.30;;;3.00;;
17886;SDS011;9069;52.044;7.472;2024-01-10T02:36:45;8.23;;;3.27;;
17886;SDS011;9069;52.044;7.472;2024-01-10T02:39:11;7.23;;;2.70;;
17886;SDS011;9069;52.044;7.472;2024-01-10T02:41:38;5.50;;;3.00;;
17886;SDS011;9069;52.044;7.472;2024-01-10T02:44:05;8.80;;;3.07;;
17886;SDS011;9069;52.044;7.472;2024-01-10T02:46:32;5.63;;;2.73;;
17886;SDS011;9069;52.044;7.472;2024-01-10T02:48:59;7.50;;;3.30;;
17886;SDS011;9069;52.044;7.472;2024-01-10T02:51:26;4.77;;;3.07;;
17886;SDS011;9069;52.044;7.472;2024-01-10T02:53:54;5.67;;;3.03;;
17886;SDS011;9069;52.044;7.472;2024-01-10T02:56:21;6.23;;;2.90;;
17886;SDS011;9069;52.044;7.472;2024-01-10T02:58:47;8.00;;;3.10;;
17886;SDS011;9069;52.044;7.472;2024-01-10T03:01:14;7.90;;;3.30;;
17886;SDS011;9069;52.044;7.472;2024-01-10T03:03:41;7.23;;;3.10;;
17886;SDS011;9069;52.044;7.472;2024-01-10T03:06:09;7.67;;;3.60;;
17886;SDS011;9069;52.044;7.472;2024-01-10T03:08:36;7.93;;;3.50;;
17886;SDS011;9069;52.044;7.472;2024-01-10T03:11:03;6.13;;;2.80;;
17886;SDS011;9069;52.044;7.472;2024-01-10T03:13:30;7.63;;;3.27;;
17886;SDS011;9069;52.044;7.472;2024-01-10T03:15:56;7.67;;;3.80;;
17886;SDS011;9069;52.044;7.472;2024-01-10T03:18:23;6.37;;;3.40;;
17886;SDS011;9069;52.044;7.472;2024-01-10T03:20:50;6.63;;;2.90;;
17886;SDS011;9069;52.044;7.472;2024-01-10T03:23:17;7.00;;;2.87;;
17886;SDS011;9069;52.044;7.472;2024-01-10T03:25:44;8.10;;;3.40;;
17886;SDS011;9069;52.044;7.472;2024-01-10T03:28:11;8.27;;;3.70;;
17886;SDS011;9069;52.044;7.472;2024-01-10T03:30:45;6.10;;;2.83;;
17886;SDS011;9069;52.044;7.472;2024-01-10T03:33:11;8.33;;;3.97;;
17886;SDS011;9069;52.044;7.472;2024-01-10T03:35:38;9.97;;;3.93;;
17886;SDS011;9069;52.044;7.472;2024-01-10T03:38:05;7.70;;;3.40;;
17886;SDS011;9069;52.044;7.472;2024-01-10T03:40:32;5.23;;;2.80;;
17886;SDS011;9069;52.044;7.472;2024-01-10T03:42:59;7.63;;;3.33;;
17886;SDS011;9069;52.044;7.472;2024-01-10T03:45:26;7.33;;;3.47;;
17886;SDS011;9069;52.044;7.472;2024-01-10T03:47:53;7.27;;;2.90;;
17886;SDS011;9069;52.044;7.472;2024-01-10T03:50:19;8.70;;;3.63;;
17886;SDS011;9069;52.044;7.472;2024-01-10T03:52:47;8.27;;;3.57;;
17886;SDS011;9069;52.044;7.472;2024-01-10T03:55:14;7.63;;;3.40;;
17886;SDS011;9069;52.044;7.472;2024-01-10T03:57:41;7.50;;;3.50;;
17886;SDS011;9069;52.044;7.472;2024-01-10T04:00:08;8.10;;;3.57;;
17886;SDS011;9069;52.044;7.472;2024-01-10T04:02:36;7.40;;;3.20;;
17886;SDS011;9069;52.044;7.472;2024-01-10T04:05:08;6.57;;;3.23;;
17886;SDS011;9069;52.044;7.472;2024-01-10T04:07:36;9.37;;;3.27;;
17886;SDS011;9069;52.044;7.472;2024-01-10T04:10:05;8.17;;;3.43;;
17886;SDS011;9069;52.044;7.472;2024-01-10T04:12:38;8.63;;;3.77;;
17886;SDS011;9069;52.044;7.472;2024-01-10T04:15:11;10.83;;;3.53;;
17886;SDS011;9069;52.044;7.472;2024-01-10T04:17:38;7.83;;;3.37;;
17886;SDS011;9069;52.044;7.472;2024-01-10T04:20:06;10.10;;;3.83;;
17886;SDS011;9069;52.044;7.472;2024-01-10T04:22:33;7.00;;;2.97;;
17886;SDS011;9069;52.044;7.472;2024-01-10T04:25:01;6.00;;;3.13;;
17886;SDS011;9069;52.044;7.472;2024-01-10T04:27:31;7.53;;;2.97;;
17886;SDS011;9069;52.044;7.472;2024-01-10T04:29:58;8.97;;;3.40;;
17886;SDS011;9069;52.044;7.472;2024-01-10T04:32:26;8.60;;;3.30;;
17886;SDS011;9069;52.044;7.472;2024-01-10T04:34:53;8.97;;;4.37;;
17886;SDS011;9069;52.044;7.472;2024-01-10T04:37:20;7.10;;;3.10;;
17886;SDS011;9069;52.044;7.472;2024-01-10T04:39:47;9.03;;;3.80;;
17886;SDS011;9069;52.044;7.472;2024-01-10T04:42:14;7.13;;;3.40;;
17886;SDS011;9069;52.044;7.472;2024-01-10T04:44:41;8.43;;;3.37;;
17886;SDS011;9069;52.044;7.472;2024-01-10T04:47:08;9.87;;;3.87;;
17886;SDS011;9069;52.044;7.472;2024-01-10T04:49:35;6.07;;;3.20;;
17886;SDS011;9069;52.044;7.472;2024-01-10T04:52:02;7.63;;;3.33;;
17886;SDS011;9069;52.044;7.472;2024-01-10T04:54:30;8.63;;;3.70;;
17886;SDS011;9069;52.044;7.472;2024-01-10T04:56:57;10.43;;;4.50;;
17886;SDS011;9069;52.044;7.472;2024-01-10T04:59:23;7.77;;;3.77;;
17886;SDS011;9069;52.044;7.472;2024-01-10T05:01:50;10.60;;;4.17;;
17886;SDS011;9069;52.044;7.472;2024-01-10T05:04:17;9.27;;;3.70;;
17886;SDS011;9069;52.044;7.472;2024-01-10T05:06:44;8.93;;;3.80;;
17886;SDS011;9069;52.044;7.472;2024-01-10T05:09:11;7.97;;;3.70;;
17886;SDS011;9069;52.044;7.472;2024-01-10T05:11:38;12.20;;;3.57;;
17886;SDS011;9069;52.044;7.472;2024-01-10T05:14:08;7.70;;;4.10;;
17886;SDS011;9069;52.044;7.472;2024-01-10T05:16:34;11.07;;;4.37;;
17886;SDS011;9069;52.044;7.472;2024-01-10T05:19:01;12.80;;;4.67;;
17886;SDS011;9069;52.044;7.472;2024-01-10T05:21:30;8.13;;;3.37;;
17886;SDS011;9069;52.044;7.472;2024-01-10T05:23:58;8.30;;;3.60;;
17886;SDS011;9069;52.044;7.472;2024-01-10T05:26:25;12.80;;;4.80;;
17886;SDS011;9069;52.044;7.472;2024-01-10T05:28:52;9.43;;;4.03;;
17886;SDS011;9069;52.044;7.472;2024-01-10T05:31:19;10.60;;;4.07;;
17886;SDS011;9069;52.044;7.472;2024-01-10T05:33:46;9.73;;;3.77;;
17886;SDS011;9069;52.044;7.472;2024-01-10T05:36:13;7.97;;;3.90;;
17886;SDS011;9069;52.044;7.472;2024-01-10T05:38:40;8.43;;;4.10;;
17886;SDS011;9069;52.044;7.472;2024-01-10T05:41:07;8.47;;;4.10;;
17886;SDS011;9069;52.044;7.472;2024-01-10T05:43:34;9.57;;;4.13;;
17886;SDS011;9069;52.044;7.472;2024-01-10T05:46:01;9.40;;;3.80;;
17886;SDS011;9069;52.044;7.472;2024-01-10T05:48:28;10.53;;;4.70;;
17886;SDS011;9069;52.044;7.472;2024-01-10T05:50:55;9.13;;;4.43;;
17886;SDS011;9069;52.044;7.472;2024-01-10T05:53:23;11.10;;;4.53;;
17886;SDS011;9069;52.044;7.472;2024-01-10T05:55:51;12.40;;;4.20;;
17886;SDS011;9069;52.044;7.472;2024-01-10T05:58:17;11.70;;;4.37;;
17886;SDS011;9069;52.044;7.472;2024-01-10T06:00:44;10.30;;;4.20;;
17886;SDS011;9069;52.044;7.472;2024-01-10T06:03:11;11.73;;;5.10;;
17886;SDS011;9069;52.044;7.472;2024-01-10T06:05:38;10.93;;;4.80;;
17886;SDS011;9069;52.044;7.472;2024-01-10T06:08:05;14.57;;;5.07;;
17886;SDS011;9069;52.044;7.472;2024-01-10T06:10:33;11.13;;;5.13;;
17886;SDS011;9069;52.044;7.472;2024-01-10T06:13:03;13.93;;;4.87;;
17886;SDS011;9069;52.044;7.472;2024-01-10T06:15:30;11.10;;;4.83;;
17886;SDS011;9069;52.044;7.472;2024-01-10T06:17:57;13.40;;;4.57;;
17886;SDS011;9069;52.044;7.472;2024-01-10T06:20:24;8.30;;;4.53;;
17886;SDS011;9069;52.044;7.472;2024-01-10T06:22:51;8.93;;;4.80;;
17886;SDS011;9069;52.044;7.472;2024-01-10T06:25:18;11.67;;;4.60;;
17886;SDS011;9069;52.044;7.472;2024-01-10T06:27:45;14.10;;;5.50;;
17886;SDS011;9069;52.044;7.472;2024-01-10T06:30:12;10.77;;;5.23;;
17886;SDS011;9069;52.044;7.472;2024-01-10T06:32:39;12.57;;;5.47;;
17886;SDS011;9069;52.044;7.472;2024-01-10T06:35:06;12.60;;;5.20;;
17886;SDS011;9069;52.044;7.472;2024-01-10T06:37:37;10.27;;;5.33;;
17886;SDS011;9069;52.044;7.472;2024-01-10T06:40:04;15.23;;;5.53;;
17886;SDS011;9069;52.044;7.472;2024-01-10T06:42:32;9.20;;;4.73;;
17886;SDS011;9069;52.044;7.472;2024-01-10T06:44:59;16.10;;;5.73;;
17886;SDS011;9069;52.044;7.472;2024-01-10T06:47:27;13.03;;;5.57;;
17886;SDS011;9069;52.044;7.472;2024-01-10T06:49:54;18.10;;;6.63;;
17886;SDS011;9069;52.044;7.472;2024-01-10T06:52:21;14.40;;;6.10;;
17886;SDS011;9069;52.044;7.472;2024-01-10T06:54:48;14.67;;;5.60;;
17886;SDS011;9069;52.044;7.472;2024-01-10T06:57:14;13.93;;;5.93;;
17886;SDS011;9069;52.044;7.472;2024-01-10T06:59:41;10.27;;;5.37;;
17886;SDS011;9069;52.044;7.472;2024-01-10T07:02:09;10.50;;;5.27;;
17886;SDS011;9069;52.044;7.472;2024-01-10T07:04:38;13.53;;;6.70;;
17886;SDS011;9069;52.044;7.472;2024-01-10T07:07:05;11.07;;;5.53;;
17886;SDS011;9069;52.044;7.472;2024-01-10T07:09:34;13.07;;;5.37;;
17886;SDS011;9069;52.044;7.472;2024-01-10T07:12:01;10.40;;;4.97;;
17886;SDS011;9069;52.044;7.472;2024-01-10T07:14:30;13.20;;;5.63;;
17886;SDS011;9069;52.044;7.472;2024-01-10T07:16:57;16.10;;;6.10;;
17886;SDS011;9069;52.044;7.472;2024-01-10T07:19:24;11.03;;;5.60;;
17886;SDS011;9069;52.044;7.472;2024-01-10T07:21:51;20.03;;;8.10;;
17886;SDS011;9069;52.044;7.472;2024-01-10T07:24:20;17.00;;;6.83;;
17886;SDS011;9069;52.044;7.472;2024-01-10T07:26:47;17.33;;;6.80;;
17886;SDS011;9069;52.044;7.472;2024-01-10T07:29:14;15.77;;;6.43;;
17886;SDS011;9069;52.044;7.472;2024-01-10T07:31:41;14.00;;;5.93;;
17886;SDS011;9069;52.044;7.472;2024-01-10T07:34:08;11.70;;;5.70;;
17886;SDS011;9069;52.044;7.472;2024-01-10T07:36:42;14.83;;;6.40;;
17886;SDS011;9069;52.044;7.472;2024-01-10T07:39:09;18.93;;;7.70;;
17886;SDS011;9069;52.044;7.472;2024-01-10T07:41:36;13.70;;;6.67;;
17886;SDS011;9069;52.044;7.472;2024-01-10T07:44:03;14.00;;;6.67;;
17886;SDS011;9069;52.044;7.472;2024-01-10T07:46:30;13.97;;;6.47;;
17886;SDS011;9069;52.044;7.472;2024-01-10T07:48:56;16.27;;;6.73;;
17886;SDS011;9069;52.044;7.472;2024-01-10T07:51:23;16.37;;;6.80;;
17886;SDS011;9069;52.044;7.472;2024-01-10T07:53:50;14.90;;;6.00;;
17886;SDS011;9069;52.044;7.472;2024-01-10T07:56:17;17.67;;;6.37;;
17886;SDS011;9069;52.044;7.472;2024-01-10T07:58:46;13.40;;;6.03;;
17886;SDS011;9069;52.044;7.472;2024-01-10T08:01:14;15.20;;;6.53;;
17886;SDS011;9069;52.044;7.472;2024-01-10T08:03:41;14.73;;;7.10;;
17886;SDS011;9069;52.044;7.472;2024-01-10T08:06:08;17.87;;;7.40;;
17886;SDS011;9069;52.044;7.472;2024-01-10T08:08:46;14.47;;;6.53;;
17886;SDS011;9069;52.044;7.472;2024-01-10T08:11:12;17.20;;;6.73;;
17886;SDS011;9069;52.044;7.472;2024-01-10T08:13:39;14.90;;;6.10;;
17886;SDS011;9069;52.044;7.472;2024-01-10T08:16:06;14.97;;;6.23;;
17886;SDS011;9069;52.044;7.472;2024-01-10T08:18:34;14.33;;;6.57;;
17886;SDS011;9069;52.044;7.472;2024-01-10T08:21:01;14.20;;;6.37;;
17886;SDS011;9069;52.044;7.472;2024-01-10T08:23:31;14.87;;;6.80;;
17886;SDS011;9069;52.044;7.472;2024-01-10T08:25:57;15.23;;;6.87;;
17886;SDS011;9069;52.044;7.472;2024-01-10T08:28:24;18.03;;;7.27;;
17886;SDS011;9069;52.044;7.472;2024-01-10T08:30:52;13.73;;;5.97;;
17886;SDS011;9069;52.044;7.472;2024-01-10T08:33:27;17.63;;;7.10;;
17886;SDS011;9069;52.044;7.472;2024-01-10T08:35:53;19.03;;;7.23;;
17886;SDS011;9069;52.044;7.472;2024-01-10T08:38:20;15.17;;;6.70;;
17886;SDS011;9069;52.044;7.472;2024-01-10T08:40:47;17.33;;;7.33;;
17886;SDS011;9069;52.044;7.472;2024-01-10T08:43:14;14.97;;;6.50;;
17886;SDS011;9069;52.044;7.472;2024-01-10T08:45:41;15.43;;;6.93;;
17886;SDS011;9069;52.044;7.472;2024-01-10T08:48:07;14.07;;;6.30;;
17886;SDS011;9069;52.044;7.472;2024-01-10T08:50:36;14.83;;;6.50;;
17886;SDS011;9069;52.044;7.472;2024-01-10T08:53:03;17.17;;;7.20;;
17886;SDS011;9069;52.044;7.472;2024-01-10T08:55:31;18.03;;;7.77;;
17886;SDS011;9069;52.044;7.472;2024-01-10T08:58:01;13.97;;;6.80;;
17886;SDS011;9069;52.044;7.472;2024-01-10T09:00:28;17.73;;;7.50;;
17886;SDS011;9069;52.044;7.472;2024-01-10T09:02:55;15.63;;;7.07;;
17886;SDS011;9069;52.044;7.472;2024-01-10T09:05:22;18.17;;;7.73;;
17886;SDS011;9069;52.044;7.472;2024-01-10T09:07:49;19.60;;;8.00;;
17886;SDS011;9069;52.044;7.472;2024-01-10T09:10:16;18.23;;;7.10;;
17886;SDS011;9069;52.044;7.472;2024-01-10T09:12:43;16.07;;;7.27;;
17886;SDS011;9069;52.044;7.472;2024-01-10T09:15:12;17.37;;;7.73;;
17886;SDS011;9069;52.044;7.472;2024-01-10T09:17:41;17.13;;;7.60;;
17886;SDS011;9069;52.044;7.472;2024-01-10T09:20:09;15.57;;;7.20;;
17886;SDS011;9069;52.044;7.472;2024-01-10T09:22:37;19.07;;;8.40;;
17886;SDS011;9069;52.044;7.472;2024-01-10T09:25:05;17.63;;;7.90;;
17886;SDS011;9069;52.044;7.472;2024-01-10T09:27:32;18.37;;;7.83;;
17886;SDS011;9069;52.044;7.472;2024-01-10T09:30:00;19.73;;;7.63;;
17886;SDS011;9069;52.044;7.472;2024-01-10T09:32:28;16.07;;;8.10;;
17886;SDS011;9069;52.044;7.472;2024-01-10T09:34:55;23.00;;;8.37;;
17886;SDS011;9069;52.044;7.472;2024-01-10T09:37:22;22.20;;;8.77;;
17886;SDS011;9069;52.044;7.472;2024-01-10T09:39:49;21.02;;;8.57;;
17886;SDS011;9069;52.044;7.472;2024-01-10T09:42:16;19.75;;;7.55;;
17886;SDS011;9069;52.044;7.472;2024-01-10T09:44:44;19.80;;;8.23;;
17886;SDS011;9069;52.044;7.472;2024-01-10T09:47:13;26.83;;;8.77;;
17886;SDS011;9069;52.044;7.472;2024-01-10T09:49:42;17.63;;;8.13;;
17886;SDS011;9069;52.044;7.472;2024-01-10T09:52:17;20.92;;;8.65;;
17886;SDS011;9069;52.044;7.472;2024-01-10T09:54:50;19.83;;;9.20;;
17886;SDS011;9069;52.044;7.472;2024-01-10T09:57:21;23.63;;;9.00;;
17886;SDS011;9069;52.044;7.472;2024-01-10T09:59:50;19.58;;;9.00;;
17886;SDS011;9069;52.044;7.472;2024-01-10T10:02:21;21.83;;;9.98;;
17886;SDS011;9069;52.044;7.472;2024-01-10T10:07:29;19.05;;;9.10;;
17886;SDS011;9069;52.044;7.472;2024-01-10T10:09:56;20.38;;;9.15;;
17886;SDS011;9069;52.044;7.472;2024-01-10T10:12:40;20.98;;;8.95;;
17886;SDS011;9069;52.044;7.472;2024-01-10T10:15:15;17.92;;;8.10;;
17886;SDS011;9069;52.044;7.472;2024-01-10T10:17:43;19.38;;;9.73;;
17886;SDS011;9069;52.044;7.472;2024-01-10T10:20:22;16.65;;;8.25;;
17886;SDS011;9069;52.044;7.472;2024-01-10T10:25:23;20.90;;;9.20;;
17886;SDS011;9069;52.044;7.472;2024-01-10T10:27:50;15.82;;;7.90;;
17886;SDS011;9069;52.044;7.472;2024-01-10T10:30:18;18.85;;;9.02;;
17886;SDS011;9069;52.044;7.472;2024-01-10T10:32:45;17.45;;;8.82;;
17886;SDS011;9069;52.044;7.472;2024-01-10T10:35:12;20.35;;;8.88;;
17886;SDS011;9069;52.044;7.472;2024-01-10T10:37:58;17.17;;;8.35;;
17886;SDS011;9069;52.044;7.472;2024-01-10T10:40:26;21.02;;;9.23;;
17886;SDS011;9069;52.044;7.472;2024-01-10T10:42:56;17.40;;;8.27;;
17886;SDS011;9069;52.044;7.472;2024-01-10T10:45:23;17.10;;;8.75;;
17886;SDS011;9069;52.044;7.472;2024-01-10T10:47:56;19.73;;;9.10;;
17886;SDS011;9069;52.044;7.472;2024-01-10T10:50:26;20.48;;;8.85;;
17886;SDS011;9069;52.044;7.472;2024-01-10T10:52:55;21.92;;;9.15;;
17886;SDS011;9069;52.044;7.472;2024-01-10T10:55:23;19.15;;;9.13;;
17886;SDS011;9069;52.044;7.472;2024-01-10T10:57:52;17.70;;;8.25;;
17886;SDS011;9069;52.044;7.472;2024-01-10T11:00:33;22.10;;;9.48;;
17886;SDS011;9069;52.044;7.472;2024-01-10T11:03:01;19.35;;;8.82;;
17886;SDS011;9069;52.044;7.472;2024-01-10T11:05:30;15.48;;;8.02;;
17886;SDS011;9069;52.044;7.472;2024-01-10T11:07:59;20.67;;;9.80;;
17886;SDS011;9069;52.044;7.472;2024-01-10T11:10:30;17.35;;;7.93;;
17886;SDS011;9069;52.044;7.472;2024-01-10T11:13:13;22.27;;;9.57;;
17886;SDS011;9069;52.044;7.472;2024-01-10T11:24:00;24.98;;;8.32;;
17886;SDS011;9069;52.044;7.472;2024-01-10T11:26:28;20.67;;;8.40;;
17886;SDS011;9069;52.044;7.472;2024-01-10T11:28:56;19.00;;;8.90;;
17886;SDS011;9069;52.044;7.472;2024-01-10T11:31:27;20.58;;;8.05;;
17886;SDS011;9069;52.044;7.472;2024-01-10T11:33:56;21.35;;;9.13;;
17886;SDS011;9069;52.044;7.472;2024-01-10T11:36:24;17.45;;;8.50;;
17886;SDS011;9069;52.044;7.472;2024-01-10T11:49:09;21.30;;;8.68;;
17886;SDS011;9069;52.044;7.472;2024-01-10T11:51:38;19.88;;;8.40;;
17886;SDS011;9069;52.044;7.472;2024-01-10T11:54:05;20.40;;;9.13;;
17886;SDS011;9069;52.044;7.472;2024-01-10T11:56:37;24.05;;;9.20;;
17886;SDS011;9069;52.044;7.472;2024-01-10T11:59:13;29.05;;;8.88;;
17886;SDS011;9069;52.044;7.472;2024-01-10T12:01:42;22.60;;;8.98;;
17886;SDS011;9069;52.044;7.472;2024-01-10T12:04:09;19.50;;;8.93;;
17886;SDS011;9069;52.044;7.472;2024-01-10T12:06:45;19.58;;;8.23;;
17886;SDS011;9069;52.044;7.472;2024-01-10T12:09:14;19.98;;;9.20;;
17886;SDS011;9069;52.044;7.472;2024-01-10T12:11:41;21.38;;;9.00;;
17886;SDS011;9069;52.044;7.472;2024-01-10T12:14:10;21.80;;;8.38;;
17886;SDS011;9069;52.044;7.472;2024-01-10T12:16:37;24.17;;;9.20;;
17886;SDS011;9069;52.044;7.472;2024-01-10T12:19:05;20.02;;;9.55;;
17886;SDS011;9069;52.044;7.472;2024-01-10T12:21:32;17.90;;;8.25;;
17886;SDS011;9069;52.044;7.472;2024-01-10T12:23:59;19.23;;;9.25;;
17886;SDS011;9069;52.044;7.472;2024-01-10T12:26:26;21.13;;;9.15;;
17886;SDS011;9069;52.044;7.472;2024-01-10T12:28:56;18.08;;;8.32;;
17886;SDS011;9069;52.044;7.472;2024-01-10T12:31:27;22.05;;;9.43;;
17886;SDS011;9069;52.044;7.472;2024-01-10T12:33:55;26.52;;;10.98;;
17886;SDS011;9069;52.044;7.472;2024-01-10T12:36:22;28.65;;;10.13;;
17886;SDS011;9069;52.044;7.472;2024-01-10T12:38:50;20.17;;;9.35;;
17886;SDS011;9069;52.044;7.472;2024-01-10T12:41:18;23.25;;;9.38;;
17886;SDS011;9069;52.044;7.472;2024-01-10T12:43:49;21.27;;;9.52;;
17886;SDS011;9069;52.044;7.472;2024-01-10T12:46:18;18.25;;;8.73;;
17886;SDS011;9069;52.044;7.472;2024-01-10T12:48:45;21.27;;;10.43;;
17886;SDS011;9069;52.044;7.472;2024-01-10T12:51:23;22.87;;;9.43;;
17886;SDS011;9069;52.044;7.472;2024-01-10T12:53:50;22.95;;;10.38;;
17886;SDS011;9069;52.044;7.472;2024-01-10T12:56:18;21.95;;;9.80;;
17886;SDS011;9069;52.044;7.472;2024-01-10T12:58:46;18.73;;;9.73;;
17886;SDS011;9069;52.044;7.472;2024-01-10T13:01:13;22.50;;;10.15;;
17886;SDS011;9069;52.044;7.472;2024-01-10T13:03:40;24.48;;;10.45;;
17886;SDS011;9069;52.044;7.472;2024-01-10T13:06:07;19.98;;;9.30;;
17886;SDS011;9069;52.044;7.472;2024-01-10T13:08:35;24.88;;;8.60;;
17886;SDS011;9069;52.044;7.472;2024-01-10T13:11:02;21.70;;;8.93;;
17886;SDS011;9069;52.044;7.472;2024-01-10T13:13:35;22.42;;;9.57;;
17886;SDS011;9069;52.044;7.472;2024-01-10T13:16:02;20.60;;;8.93;;
17886;SDS011;9069;52.044;7.472;2024-01-10T13:18:30;23.00;;;9.93;;
17886;SDS011;9069;52.044;7.472;2024-01-10T13:20:57;22.80;;;10.30;;
17886;SDS011;9069;52.044;7.472;2024-01-10T13:23:24;23.45;;;9.68;;
17886;SDS011;9069;52.044;7.472;2024-01-10T13:25:51;24.67;;;9.70;;
17886;SDS011;9069;52.044;7.472;2024-01-10T13:28:18;24.70;;;9.75;;
17886;SDS011;9069;52.044;7.472;2024-01-10T13:30:45;20.88;;;9.07;;
17886;SDS011;9069;52.044;7.472;2024-01-10T13:33:12;21.45;;;10.88;;
17886;SDS011;9069;52.044;7.472;2024-01-10T13:35:39;20.42;;;9.35;;
17886;SDS011;9069;52.044;7.472;2024-01-10T13:38:06;20.42;;;9.55;;
17886;SDS011;9069;52.044;7.472;2024-01-10T13:40:34;20.75;;;10.00;;
17886;SDS011;9069;52.044;7.472;2024-01-10T13:43:01;18.00;;;8.93;;
17886;SDS011;9069;52.044;7.472;2024-01-10T13:45:29;17.70;;;8.70;;
17886;SDS011;9069;52.044;7.472;2024-01-10T13:47:56;18.73;;;9.60;;
17886;SDS011;9069;52.044;7.472;2024-01-10T13:50:23;22.23;;;9.88;;
17886;SDS011;9069;52.044;7.472;2024-01-10T13:52:51;20.83;;;9.43;;
17886;SDS011;9069;52.044;7.472;2024-01-10T13:55:20;20.23;;;9.43;;
17886;SDS011;9069;52.044;7.472;2024-01-10T13:57:47;23.73;;;9.93;;
17886;SDS011;9069;52.044;7.472;2024-01-10T14:00:13;20.67;;;9.75;;
17886;SDS011;9069;52.044;7.472;2024-01-10T14:02:43;23.85;;;9.52;;
17886;SDS011;9069;52.044;7.472;2024-01-10T14:05:10;21.70;;;9.82;;
17886;SDS011;9069;52.044;7.472;2024-01-10T14:07:37;22.42;;;10.95;;
17886;SDS011;9069;52.044;7.472;2024-01-10T14:10:04;22.92;;;10.25;;
17886;SDS011;9069;52.044;7.472;2024-01-10T14:12:32;22.42;;;10.00;;
17886;SDS011;9069;52.044;7.472;2024-01-10T14:15:01;25.27;;;11.88;;
17886;SDS011;9069;52.044;7.472;2024-01-10T14:17:28;28.75;;;10.55;;
17886;SDS011;9069;52.044;7.472;2024-01-10T14:19:55;20.52;;;9.32;;
17886;SDS011;9069;52.044;7.472;2024-01-10T14:22:22;26.45;;;8.80;;
17886;SDS011;9069;52.044;7.472;2024-01-10T14:24:57;22.98;;;9.75;;
17886;SDS011;9069;52.044;7.472;2024-01-10T14:27:28;23.60;;;9.50;;
17886;SDS011;9069;52.044;7.472;2024-01-10T14:29:55;24.77;;;10.07;;
17886;SDS011;9069;52.044;7.472;2024-01-10T14:32:22;21.70;;;10.02;;
17886;SDS011;9069;52.044;7.472;2024-01-10T14:34:49;21.98;;;9.82;;
17886;SDS011;9069;52.044;7.472;2024-01-10T14:37:17;22.38;;;10.02;;
17886;SDS011;9069;52.044;7.472;2024-01-10T14:39:44;22.75;;;9.65;;
17886;SDS011;9069;52.044;7.472;2024-01-10T14:42:10;20.92;;;9.75;;
17886;SDS011;9069;52.044;7.472;2024-01-10T14:44:37;22.55;;;10.10;;
17886;SDS011;9069;52.044;7.472;2024-01-10T14:47:04;23.65;;;9.93;;
17886;SDS011;9069;52.044;7.472;2024-01-10T14:49:37;23.58;;;10.00;;
17886;SDS011;9069;52.044;7.472;2024-01-10T14:52:05;29.27;;;10.82;;
17886;SDS011;9069;52.044;7.472;2024-01-10T14:54:32;24.40;;;9.95;;
17886;SDS011;9069;52.044;7.472;2024-01-10T14:57:01;23.63;;;9.98;;
17886;SDS011;9069;52.044;7.472;2024-01-10T14:59:27;22.17;;;10.10;;
17886;SDS011;9069;52.044;7.472;2024-01-10T15:02:09;30.27;;;11.05;;
17886;SDS011;9069;52.044;7.472;2024-01-10T15:04:37;23.13;;;10.27;;
17886;SDS011;9069;52.044;7.472;2024-01-10T15:07:05;20.58;;;9.45;;
17886;SDS011;9069;52.044;7.472;2024-01-10T15:09:32;24.05;;;10.82;;
17886;SDS011;9069;52.044;7.472;2024-01-10T15:11:59;31.50;;;11.43;;
17886;SDS011;9069;52.044;7.472;2024-01-10T15:14:26;28.63;;;12.20;;
17886;SDS011;9069;52.044;7.472;2024-01-10T15:16:53;25.42;;;9.80;;
17886;SDS011;9069;52.044;7.472;2024-01-10T15:19:22;30.38;;;11.40;;
17886;SDS011;9069;52.044;7.472;2024-01-10T15:21:49;28.83;;;11.55;;